createdAt,value
2017-01-21T11:34:45.649Z,15.27
2017-01-21T11:35:45.640Z,15.31
2017-01-21T11:36:45.753Z,15.37
2017-01-21T11:37:45.900Z,15.46
2017-01-21T11:38:48.072Z,15.53
2017-01-21T11:39:17.972Z,15.6
2017-01-21T11:39:48.014Z,15.66
2017-01-21T11:40:18.054Z,15.71
2017-01-21T11:40:50.616Z,15.75
2017-01-21T11:41:18.228Z,15.78
2017-01-21T11:41:48.138Z,15.79
2017-01-21T11:42:18.187Z,15.82
2017-01-21T11:42:48.201Z,15.85
2017-01-21T11:43:18.295Z,15.88
2017-01-21T11:43:48.304Z,15.94
2017-01-21T11:44:18.326Z,15.96
2017-01-21T11:44:48.340Z,16.02
2017-01-21T11:45:19.595Z,16.05
2017-01-21T11:45:48.730Z,16.1
2017-01-21T11:46:18.529Z,16.16
2017-01-21T11:46:48.910Z,16.2
2017-01-21T11:47:19.441Z,16.23
2017-01-21T11:47:48.812Z,16.27
2017-01-21T11:48:18.842Z,16.29
2017-01-21T11:48:48.665Z,16.3
2017-01-21T11:49:18.926Z,16.34
2017-01-21T11:49:51.626Z,16.39
2017-01-21T11:50:18.742Z,16.42
2017-01-21T11:50:49.089Z,16.49
2017-01-21T11:51:22.561Z,16.49
2017-01-21T11:51:48.884Z,16.49
2017-01-21T11:52:18.948Z,16.52
2017-01-21T11:52:54.760Z,16.53
2017-01-21T11:54:18.240Z,16.65
2017-01-21T11:54:48.531Z,16.68
2017-01-21T11:55:04.480Z,16.71
2017-01-21T11:55:34.462Z,16.72
2017-01-21T11:56:04.462Z,16.76
2017-01-21T11:56:34.499Z,16.77
2017-01-21T11:57:04.532Z,16.77
2017-01-21T11:57:34.602Z,16.78
2017-01-21T11:58:04.693Z,16.82
2017-01-21T11:58:34.641Z,16.86
2017-01-21T11:59:04.720Z,16.9
2017-01-21T11:59:38.058Z,16.89
2017-01-21T12:00:10.681Z,16.91
2017-01-21T12:00:38.096Z,16.92
2017-01-21T12:01:08.124Z,16.91
2017-01-21T12:01:58.508Z,16.93
2017-01-21T12:02:42.066Z,17.01
2017-01-21T12:03:25.264Z,17.07
2017-01-21T12:03:36.189Z,17.09
2017-01-21T12:06:04.219Z,17.21
2017-01-21T12:06:34.197Z,17.22
2017-01-21T12:07:31.739Z,17.24
2017-01-21T12:07:46.792Z,17.27
2017-01-21T12:08:30.654Z,17.26
2017-01-21T12:09:05.146Z,17.28
2017-01-21T12:09:51.801Z,17.33
2017-01-21T12:10:17.538Z,17.34
2017-01-21T12:11:02.348Z,17.4
2017-01-21T12:11:30.063Z,17.44
2017-01-21T12:12:13.212Z,17.47
2017-01-21T12:12:42.576Z,17.54
2017-01-21T12:13:24.963Z,17.59
2017-01-21T12:14:08.824Z,17.61
2017-01-21T12:14:51.498Z,17.65
2017-01-21T12:15:31.175Z,17.67
2017-01-21T12:16:14.462Z,17.69
2017-01-21T12:16:46.007Z,17.71
2017-01-21T12:17:16.141Z,17.68
2017-01-21T12:17:46.548Z,17.69
2017-01-21T12:18:17.752Z,17.67
2017-01-21T12:18:43.353Z,17.7
2017-01-21T12:19:13.596Z,17.66
2017-01-21T12:19:43.517Z,17.62
2017-01-21T12:20:14.700Z,17.58
2017-01-21T12:20:43.497Z,17.58
2017-01-21T12:21:13.877Z,17.57
2017-01-21T12:21:43.568Z,17.55
2017-01-21T12:22:17.718Z,17.54
2017-01-21T12:22:43.660Z,17.52
2017-01-21T12:23:13.676Z,17.5
2017-01-21T12:23:43.711Z,17.51
2017-01-21T12:24:13.748Z,17.48
2017-01-21T12:24:43.899Z,17.49
2017-01-21T12:25:13.817Z,17.46
2017-01-21T12:25:43.876Z,17.45
2017-01-21T12:26:17.855Z,17.44
2017-01-21T12:26:44.004Z,17.46
2017-01-21T12:27:20.088Z,17.45
2017-01-21T12:27:44.029Z,17.45
2017-01-21T12:28:14.032Z,17.47
2017-01-21T12:28:44.091Z,17.47
2017-01-21T12:29:14.106Z,17.47
2017-01-21T12:29:44.140Z,17.48
2017-01-21T12:30:14.178Z,17.49
2017-01-21T12:30:44.252Z,17.5
2017-01-21T12:31:14.246Z,17.51
2017-01-21T12:31:44.433Z,17.51
2017-01-21T12:32:14.332Z,17.51
2017-01-21T12:32:44.353Z,17.5
2017-01-21T12:33:14.393Z,17.51
2017-01-21T12:33:44.430Z,17.5
2017-01-21T12:34:14.468Z,17.51
2017-01-21T12:34:44.504Z,17.5
2017-01-21T12:35:14.539Z,17.52
2017-01-21T12:35:44.572Z,17.51
2017-01-21T12:36:14.607Z,17.52
2017-01-21T12:36:44.640Z,17.52
2017-01-21T12:37:14.685Z,17.53
2017-01-21T12:37:44.714Z,17.54
2017-01-21T12:38:14.788Z,17.54
2017-01-21T12:38:44.802Z,17.55
2017-01-21T12:39:14.846Z,17.54
2017-01-21T12:39:44.856Z,17.56
2017-01-21T12:40:14.896Z,17.56
2017-01-21T12:40:44.927Z,17.59
2017-01-21T12:41:25.200Z,17.59
2017-01-21T12:41:45.146Z,17.58
2017-01-21T12:42:15.446Z,17.59
2017-01-21T12:42:47.499Z,17.61
2017-01-21T12:43:15.765Z,17.62
2017-01-21T12:43:45.282Z,17.64
2017-01-21T12:44:15.781Z,17.64
2017-01-21T12:44:45.218Z,17.63
2017-01-21T12:45:15.251Z,17.62
2017-01-21T12:45:45.288Z,17.61
2017-01-21T12:46:15.321Z,17.62
2017-01-21T12:46:45.358Z,17.63
2017-01-21T12:47:15.401Z,17.64
2017-01-21T12:47:45.430Z,17.64
2017-01-21T12:48:15.489Z,17.66
2017-01-21T12:48:45.502Z,17.67
2017-01-21T12:49:15.538Z,17.66
2017-01-21T12:49:45.574Z,17.65
2017-01-21T12:50:15.611Z,17.66
2017-01-21T12:50:45.720Z,17.66
2017-01-21T12:51:15.679Z,17.66
2017-01-21T12:51:45.716Z,17.65
2017-01-21T12:52:15.751Z,17.64
2017-01-21T12:52:46.886Z,17.65
2017-01-21T12:53:15.841Z,17.65
2017-01-21T12:53:45.861Z,17.65
2017-01-21T12:54:15.907Z,17.65
2017-01-21T12:54:45.931Z,17.67
2017-01-21T12:55:15.966Z,17.69
2017-01-21T12:55:46.002Z,17.68
2017-01-21T12:56:16.071Z,17.69
2017-01-21T12:56:46.073Z,17.68
2017-01-21T12:57:17.775Z,17.68
2017-01-21T12:57:46.144Z,17.68
2017-01-21T12:58:16.182Z,17.68
2017-01-21T12:58:46.218Z,17.71
2017-01-21T12:59:16.252Z,17.71
2017-01-21T12:59:47.572Z,17.73
2017-01-21T13:00:16.323Z,17.7
2017-01-21T13:00:46.359Z,17.69
2017-01-21T13:01:16.397Z,17.69
2017-01-21T13:01:46.431Z,17.7
2017-01-21T13:02:16.468Z,17.72
2017-01-21T13:02:46.505Z,17.72
2017-01-21T13:03:16.563Z,17.71
2017-01-21T13:03:46.576Z,17.72
2017-01-21T13:04:16.768Z,17.73
2017-01-21T13:04:46.650Z,17.7
2017-01-21T13:05:16.684Z,17.73
2017-01-21T13:05:46.718Z,17.73
2017-01-21T13:06:16.756Z,17.74
2017-01-21T13:06:46.795Z,17.76
2017-01-21T13:07:16.829Z,17.75
2017-01-21T13:07:46.863Z,17.74
2017-01-21T13:08:16.900Z,17.76
2017-01-21T13:08:46.937Z,17.79
2017-01-21T13:09:16.971Z,17.81
2017-01-21T13:09:47.004Z,17.8
2017-01-21T13:10:17.041Z,17.79
2017-01-21T13:10:47.077Z,17.8
2017-01-21T13:11:17.116Z,17.8
2017-01-21T13:11:47.151Z,17.8
2017-01-21T13:12:17.186Z,17.83
2017-01-21T13:12:47.224Z,17.82
2017-01-21T13:13:17.256Z,17.85
2017-01-21T13:13:47.293Z,17.85
2017-01-21T13:14:17.331Z,17.87
2017-01-21T13:14:47.454Z,17.87
2017-01-21T13:15:17.405Z,17.88
2017-01-21T13:15:47.437Z,17.88
2017-01-21T13:16:17.472Z,17.88
2017-01-21T13:16:47.508Z,17.9
2017-01-21T13:17:17.543Z,17.91
2017-01-21T13:17:47.582Z,17.91
2017-01-21T13:18:17.616Z,17.9
2017-01-21T13:18:47.651Z,17.9
2017-01-21T13:19:17.687Z,17.93
2017-01-21T13:19:47.722Z,17.93
2017-01-21T13:20:17.756Z,17.94
2017-01-21T13:20:47.798Z,17.95
2017-01-21T13:21:17.835Z,17.95
2017-01-21T13:21:47.867Z,17.96
2017-01-21T13:22:17.902Z,17.96
2017-01-21T13:22:47.940Z,17.97
2017-01-21T13:23:17.974Z,17.97
2017-01-21T13:23:48.008Z,17.97
2017-01-21T13:24:18.047Z,17.99
2017-01-21T13:24:48.085Z,18.03
2017-01-21T13:25:18.128Z,18.03
2017-01-21T13:25:48.168Z,18.04
2017-01-21T13:26:18.195Z,18.04
2017-01-21T13:26:48.224Z,18.04
2017-01-21T13:27:18.262Z,18.05
2017-01-21T13:27:48.317Z,18.05
2017-01-21T13:28:18.335Z,18.07
2017-01-21T13:28:48.371Z,18.07
2017-01-21T13:29:18.404Z,18.07
2017-01-21T13:29:48.442Z,18.09
2017-01-21T13:30:18.476Z,18.06
2017-01-21T13:30:48.513Z,18.08
2017-01-21T13:31:18.551Z,18.09
2017-01-21T13:31:48.585Z,18.09
2017-01-21T13:32:18.620Z,18.09
2017-01-21T13:32:48.656Z,18.09
2017-01-21T13:33:18.693Z,18.09
2017-01-21T13:33:48.729Z,18.11
2017-01-21T13:34:18.765Z,18.11
2017-01-21T13:34:48.798Z,18.12
2017-01-21T13:35:19.023Z,18.14
2017-01-21T13:35:48.881Z,18.16
2017-01-21T13:36:20.293Z,18.17
2017-01-21T13:36:48.955Z,18.17
2017-01-21T13:37:18.978Z,18.18
2017-01-21T13:37:49.202Z,18.18
2017-01-21T13:38:19.297Z,18.17
2017-01-21T13:38:49.088Z,18.17
2017-01-21T13:39:19.124Z,18.17
2017-01-21T13:39:50.465Z,18.17
2017-01-21T13:40:19.497Z,18.18
2017-01-21T13:40:49.231Z,18.17
2017-01-21T13:41:19.270Z,18.17
2017-01-21T13:41:49.303Z,18.17
2017-01-21T13:42:19.345Z,18.18
2017-01-21T13:42:49.375Z,18.18
2017-01-21T13:43:19.409Z,18.18
2017-01-21T13:43:49.450Z,18.19
2017-01-21T13:44:19.485Z,18.19
2017-01-21T13:44:49.519Z,18.2
2017-01-21T13:45:19.557Z,18.21
2017-01-21T13:45:49.596Z,18.21
2017-01-21T13:46:19.629Z,18.23
2017-01-21T13:46:49.663Z,18.24
2017-01-21T13:47:19.696Z,18.24
2017-01-21T13:47:50.360Z,18.24
2017-01-21T13:48:19.771Z,18.24
2017-01-21T13:48:49.805Z,18.23
2017-01-21T13:49:19.846Z,18.24
2017-01-21T13:49:49.877Z,18.23
2017-01-21T13:50:19.916Z,18.24
2017-01-21T13:50:49.950Z,18.26
2017-01-21T13:51:20.010Z,18.29
2017-01-21T13:51:50.022Z,18.28
2017-01-21T13:52:20.064Z,18.27
2017-01-21T13:52:50.097Z,18.26
2017-01-21T13:53:20.130Z,18.26
2017-01-21T13:53:50.168Z,18.25
2017-01-21T13:54:20.216Z,18.26
2017-01-21T13:54:50.241Z,18.25
2017-01-21T13:55:20.274Z,18.28
2017-01-21T13:55:50.310Z,18.28
2017-01-21T13:56:20.348Z,18.29
2017-01-21T13:56:50.384Z,18.3
2017-01-21T13:57:20.422Z,18.31
2017-01-21T13:57:50.458Z,18.32
2017-01-21T13:58:20.493Z,18.33
2017-01-21T13:58:50.523Z,18.33
2017-01-21T13:59:20.564Z,18.34
2017-01-21T13:59:50.602Z,18.35
2017-01-21T14:00:20.632Z,18.37
2017-01-21T14:00:50.670Z,18.37
2017-01-21T14:01:20.708Z,18.39
2017-01-21T14:01:50.744Z,18.39
2017-01-21T14:02:20.780Z,18.41
2017-01-21T14:02:50.816Z,18.41
2017-01-21T14:03:20.849Z,18.43
2017-01-21T14:04:00.735Z,18.42
2017-01-21T14:26:53.320Z,19.37
2017-01-21T14:27:23.353Z,19.36
2017-01-21T14:27:53.390Z,19.36
2017-01-21T14:28:23.426Z,19.32
2017-01-21T14:28:53.666Z,19.29
2017-01-21T14:29:23.507Z,19.24
2017-01-21T14:29:53.534Z,19.2
2017-01-21T14:30:23.569Z,19.16
2017-01-21T14:30:53.608Z,19.12
2017-01-21T14:31:23.649Z,19.1
2017-01-21T14:31:53.681Z,19.08
2017-01-21T14:32:23.713Z,19.05
2017-01-21T14:32:53.749Z,19.04
2017-01-21T14:33:23.935Z,19.03
2017-01-21T14:33:53.827Z,19.02
2017-01-21T14:34:24.063Z,19.01
2017-01-21T14:34:54.102Z,19.02
2017-01-21T14:35:23.934Z,19.02
2017-01-21T14:35:53.993Z,19.02
2017-01-21T14:36:24.201Z,19.01
2017-01-21T14:36:54.040Z,19.02
2017-01-21T14:37:24.078Z,19.03
2017-01-21T14:37:54.119Z,19.03
2017-01-21T14:38:24.151Z,19.04
2017-01-21T14:38:54.185Z,19.03
2017-01-21T14:39:24.225Z,19.05
2017-01-21T14:39:54.279Z,19.06
2017-01-21T14:40:24.414Z,19.06
2017-01-21T14:40:54.455Z,19.07
2017-01-21T14:41:24.372Z,19.07
2017-01-21T14:41:54.407Z,19.05
2017-01-21T14:42:24.553Z,19.06
2017-01-21T14:42:54.492Z,19.07
2017-01-21T14:43:24.786Z,19.08
2017-01-21T14:43:54.555Z,19.08
2017-01-21T14:44:24.789Z,19.09
2017-01-21T14:45:22.001Z,19.1
2017-01-21T14:45:42.543Z,19.11
2017-01-21T14:46:09.118Z,19.12
2017-01-21T14:47:09.078Z,19.14
2017-01-21T14:47:39.257Z,19.13
2017-01-21T14:48:10.512Z,19.13
2017-01-21T14:48:40.261Z,19.13
2017-01-21T14:49:11.010Z,19.15
2017-01-21T14:49:42.183Z,19.15
2017-01-21T14:50:09.234Z,19.15
2017-01-21T14:50:39.267Z,19.15
2017-01-21T14:51:09.308Z,19.16
2017-01-21T14:51:39.347Z,19.16
2017-01-21T14:52:09.430Z,19.17
2017-01-21T14:52:39.414Z,19.17
2017-01-21T14:53:09.452Z,19.18
2017-01-21T14:53:39.487Z,19.19
2017-01-21T14:54:09.527Z,19.19
2017-01-21T14:54:39.558Z,19.19
2017-01-21T14:55:09.595Z,19.19
2017-01-21T14:55:39.635Z,19.21
2017-01-21T14:56:09.671Z,19.21
2017-01-21T14:56:39.704Z,19.22
2017-01-21T14:57:09.742Z,19.22
2017-01-21T14:57:40.112Z,19.2
2017-01-21T14:58:09.815Z,19.2
2017-01-21T14:58:39.851Z,19.2
2017-01-21T14:59:09.888Z,19.2
2017-01-21T14:59:39.924Z,19.22
2017-01-21T15:00:10.042Z,19.22
2017-01-21T15:00:40.134Z,19.21
2017-01-21T15:01:10.032Z,19.22
2017-01-21T15:01:40.066Z,19.22
2017-01-21T15:02:10.119Z,19.23
2017-01-21T15:02:40.142Z,19.23
2017-01-21T15:03:10.176Z,19.23
2017-01-21T15:03:24.629Z,19.24
2017-01-21T15:03:54.662Z,19.22
2017-01-21T15:04:24.701Z,19.21
2017-01-21T15:04:54.735Z,19.2
2017-01-21T15:05:24.769Z,19.23
2017-01-21T15:05:54.807Z,19.23
2017-01-21T15:06:24.843Z,19.22
2017-01-21T15:06:55.319Z,19.23
2017-01-21T15:07:25.180Z,19.23
2017-01-21T15:07:54.953Z,19.22
2017-01-21T15:08:24.999Z,19.22
2017-01-21T15:08:55.025Z,19.23
2017-01-21T15:09:25.068Z,19.22
2017-01-21T15:09:55.106Z,19.24
2017-01-21T15:10:25.138Z,19.24
2017-01-21T15:10:55.170Z,19.24
2017-01-21T15:11:25.210Z,19.25
2017-01-21T15:11:55.251Z,19.25
2017-01-21T15:12:25.290Z,19.25
2017-01-21T15:12:55.318Z,19.26
2017-01-21T15:13:25.351Z,19.27
2017-01-21T15:13:55.391Z,19.26
2017-01-21T15:14:25.429Z,19.26
2017-01-21T15:14:55.479Z,19.26
2017-01-21T15:15:25.500Z,19.26
2017-01-21T15:15:55.538Z,19.26
2017-01-21T15:16:25.587Z,19.26
2017-01-21T15:16:55.609Z,19.26
2017-01-21T15:17:25.645Z,19.27
2017-01-21T15:17:55.683Z,19.25
2017-01-21T15:18:25.740Z,19.25
2017-01-21T15:18:55.758Z,19.24
2017-01-21T15:19:25.791Z,19.24
2017-01-21T15:19:55.828Z,19.25
2017-01-21T15:20:25.864Z,19.24
2017-01-21T15:20:55.900Z,19.24
2017-01-21T15:21:38.325Z,19.23
2017-01-21T15:22:08.362Z,19.23
2017-01-21T15:22:38.396Z,19.22
2017-01-21T15:23:08.433Z,19.23
2017-01-21T15:23:38.468Z,19.22
2017-01-21T15:24:08.589Z,19.21
2017-01-21T15:24:38.542Z,19.2
2017-01-21T15:25:08.611Z,19.2
2017-01-21T15:25:40.869Z,19.19
2017-01-21T15:26:08.661Z,19.18
2017-01-21T15:26:38.701Z,19.17
2017-01-21T15:27:08.722Z,19.17
2017-01-21T15:27:38.760Z,19.16
2017-01-21T15:28:09.007Z,19.15
2017-01-21T15:28:38.841Z,19.15
2017-01-21T15:29:08.880Z,19.14
2017-01-21T15:29:38.910Z,19.12
2017-01-21T15:30:08.942Z,19.12
2017-01-21T15:30:39.038Z,19.12
2017-01-21T15:31:14.865Z,19.12
2017-01-21T15:31:39.051Z,19.12
2017-01-21T15:32:09.087Z,19.12
2017-01-21T15:32:39.127Z,19.11
2017-01-21T15:33:09.163Z,19.09
2017-01-21T15:33:39.196Z,19.09
2017-01-21T15:34:09.231Z,19.08
2017-01-21T15:34:39.269Z,19.07
2017-01-21T15:35:09.305Z,19.07
2017-01-21T15:35:39.343Z,19.07
2017-01-21T15:36:09.411Z,19.05
2017-01-21T15:36:39.415Z,19.04
2017-01-21T15:37:09.451Z,19.03
2017-01-21T15:37:39.490Z,19.03
2017-01-21T15:38:09.521Z,19.03
2017-01-21T15:38:39.562Z,19.01
2017-01-21T15:39:09.617Z,19
2017-01-21T15:39:52.019Z,18.98
2017-01-21T15:40:22.054Z,18.96
2017-01-21T15:40:52.090Z,18.94
2017-01-21T15:41:22.131Z,18.93
2017-01-21T15:41:52.163Z,18.93
2017-01-21T15:42:22.202Z,18.92
2017-01-21T15:42:52.240Z,18.9
2017-01-21T15:43:22.271Z,18.89
2017-01-21T15:43:52.311Z,18.89
2017-01-21T15:44:22.345Z,18.86
2017-01-21T15:44:52.382Z,18.86
2017-01-21T15:45:22.416Z,18.88
2017-01-21T15:45:52.451Z,18.85
2017-01-21T15:46:22.490Z,18.86
2017-01-21T15:46:52.527Z,18.84
2017-01-21T15:47:22.563Z,18.83
2017-01-21T15:47:52.598Z,18.83
2017-01-21T15:48:22.634Z,18.83
2017-01-21T15:48:52.675Z,18.82
2017-01-21T15:49:22.712Z,18.81
2017-01-21T15:49:52.742Z,18.81
2017-01-21T15:50:22.779Z,18.79
2017-01-21T15:50:52.820Z,18.8
2017-01-21T15:51:22.855Z,18.8
2017-01-21T15:51:52.888Z,18.8
2017-01-21T15:52:22.923Z,18.8
2017-01-21T15:52:52.961Z,18.8
2017-01-21T15:53:22.997Z,18.79
2017-01-21T15:53:53.035Z,18.8
2017-01-21T15:54:23.072Z,18.81
2017-01-21T15:54:53.111Z,18.8
2017-01-21T15:55:23.142Z,18.8
2017-01-21T15:55:53.204Z,18.8
2017-01-21T15:56:23.214Z,18.8
2017-01-21T15:56:53.254Z,18.82
2017-01-21T15:57:23.289Z,18.82
2017-01-21T15:58:05.711Z,18.81
2017-01-21T15:58:35.746Z,18.82
2017-01-21T15:59:05.784Z,18.83
2017-01-21T15:59:35.823Z,18.83
2017-01-21T16:00:05.863Z,18.84
2017-01-21T16:00:35.892Z,18.86
2017-01-21T16:01:05.929Z,18.87
2017-01-21T16:01:35.966Z,18.89
2017-01-21T16:02:06.001Z,18.89
2017-01-21T16:02:36.040Z,18.9
2017-01-21T16:03:06.072Z,18.91
2017-01-21T16:03:36.107Z,18.91
2017-01-21T16:04:06.144Z,18.92
2017-01-21T16:04:36.179Z,18.92
2017-01-21T16:05:06.218Z,18.94
2017-01-21T16:05:36.254Z,18.95
2017-01-21T16:06:06.289Z,18.95
2017-01-21T16:06:36.326Z,18.97
2017-01-21T16:07:06.362Z,18.98
2017-01-21T16:07:36.401Z,18.99
2017-01-21T16:08:06.433Z,18.99
2017-01-21T16:08:36.473Z,19
2017-01-21T16:09:06.514Z,19.01
2017-01-21T16:09:36.545Z,19.03
2017-01-21T16:10:06.596Z,19.03
2017-01-21T16:10:36.623Z,19.05
2017-01-21T16:11:06.652Z,19.05
2017-01-21T16:11:36.689Z,19.05
2017-01-21T16:12:06.726Z,19.06
2017-01-21T16:12:36.764Z,19.06
2017-01-21T16:13:06.797Z,19.06
2017-01-21T16:13:36.836Z,19.07
2017-01-21T16:14:06.873Z,19.08
2017-01-21T16:14:36.906Z,19.09
2017-01-21T16:15:06.965Z,19.08
2017-01-21T16:15:36.982Z,19.09
2017-01-21T16:16:19.403Z,19.1
2017-01-21T16:16:49.438Z,19.11
2017-01-21T16:17:19.475Z,19.13
2017-01-21T16:17:49.513Z,19.13
2017-01-21T16:18:19.545Z,19.13
2017-01-21T16:18:49.582Z,19.14
2017-01-21T16:19:19.621Z,19.14
2017-01-21T16:19:49.659Z,19.16
2017-01-21T16:20:19.692Z,19.16
2017-01-21T16:20:49.726Z,19.16
2017-01-21T16:21:19.765Z,19.17
2017-01-21T16:21:49.798Z,19.19
2017-01-21T16:22:19.837Z,19.19
2017-01-21T16:22:49.873Z,19.2
2017-01-21T16:23:19.916Z,19.19
2017-01-21T16:23:49.973Z,19.2
2017-01-21T16:24:19.981Z,19.21
2017-01-21T16:24:50.034Z,19.21
2017-01-21T16:25:20.059Z,19.22
2017-01-21T16:25:50.106Z,19.22
2017-01-21T16:26:20.128Z,19.22
2017-01-21T16:26:50.163Z,19.23
2017-01-21T16:27:20.211Z,19.24
2017-01-21T16:27:50.240Z,19.24
2017-01-21T16:28:20.272Z,19.24
2017-01-21T16:28:50.311Z,19.24
2017-01-21T16:29:20.348Z,19.25
2017-01-21T16:29:50.389Z,19.25
2017-01-21T16:30:20.421Z,19.26
2017-01-21T16:30:50.489Z,19.26
2017-01-21T16:31:20.493Z,19.27
2017-01-21T16:31:50.531Z,19.29
2017-01-21T16:32:20.570Z,19.28
2017-01-21T16:32:50.604Z,19.29
2017-01-21T16:33:20.639Z,19.3
2017-01-21T16:33:50.679Z,19.31
2017-01-21T16:34:33.100Z,19.31
2017-01-21T16:35:03.132Z,19.32
2017-01-21T16:35:33.169Z,19.31
2017-01-21T16:36:03.215Z,19.32
2017-01-21T16:36:33.243Z,19.33
2017-01-21T16:37:03.281Z,19.34
2017-01-21T16:37:33.315Z,19.35
2017-01-21T16:38:08.323Z,19.36
2017-01-21T16:38:33.390Z,19.36
2017-01-21T16:39:04.874Z,19.38
2017-01-21T16:39:33.462Z,19.39
2017-01-21T16:40:03.499Z,19.39
2017-01-21T16:40:33.536Z,19.4
2017-01-21T16:41:03.571Z,19.42
2017-01-21T16:41:33.608Z,19.43
2017-01-21T16:42:03.650Z,19.44
2017-01-21T16:42:33.678Z,19.43
2017-01-21T16:43:03.717Z,19.44
2017-01-21T16:43:33.753Z,19.44
2017-01-21T16:44:03.797Z,19.45
2017-01-21T16:44:33.823Z,19.47
2017-01-21T16:45:03.864Z,19.47
2017-01-21T16:45:33.900Z,19.47
2017-01-21T16:46:03.937Z,19.48
2017-01-21T16:46:34.075Z,19.48
2017-01-21T16:47:04.007Z,19.49
2017-01-21T16:47:34.043Z,19.5
2017-01-21T16:48:04.084Z,19.5
2017-01-21T16:48:34.121Z,19.51
2017-01-21T16:49:04.160Z,19.52
2017-01-21T16:49:34.189Z,19.52
2017-01-21T16:50:04.226Z,19.53
2017-01-21T16:50:34.266Z,19.54
2017-01-21T16:51:04.300Z,19.54
2017-01-21T16:51:34.339Z,19.55
2017-01-21T16:52:04.376Z,19.55
2017-01-21T16:52:46.800Z,19.57
2017-01-21T16:53:16.832Z,19.58
2017-01-21T16:53:46.871Z,19.58
2017-01-21T16:54:16.926Z,19.58
2017-01-21T16:54:46.939Z,19.59
2017-01-21T16:55:16.980Z,19.6
2017-01-21T16:55:47.021Z,19.6
2017-01-21T16:56:17.058Z,19.6
2017-01-21T16:56:47.088Z,19.61
2017-01-21T16:57:17.125Z,19.6
2017-01-21T16:57:47.163Z,19.6
2017-01-21T16:58:17.197Z,19.6
2017-01-21T16:58:47.232Z,19.6
2017-01-21T16:59:17.271Z,19.61
2017-01-21T16:59:47.324Z,19.61
2017-01-21T17:00:17.345Z,19.62
2017-01-21T17:00:47.380Z,19.62
2017-01-21T17:01:17.418Z,19.63
2017-01-21T17:01:47.456Z,19.61
2017-01-21T17:02:17.499Z,19.62
2017-01-21T17:02:47.526Z,19.63
2017-01-21T17:03:17.564Z,19.63
2017-01-21T17:03:47.600Z,19.62
2017-01-21T17:04:17.636Z,19.62
2017-01-21T17:04:47.671Z,19.62
2017-01-21T17:05:17.938Z,19.62
2017-01-21T17:05:47.922Z,19.62
2017-01-21T17:06:24.802Z,19.62
2017-01-21T17:06:47.952Z,19.62
2017-01-21T17:07:17.996Z,19.6
2017-01-21T17:07:48.186Z,19.61
2017-01-21T17:08:20.079Z,19.6
2017-01-21T17:08:48.367Z,19.6
2017-01-21T17:09:19.223Z,19.61
2017-01-21T17:09:48.546Z,19.59
2017-01-21T17:10:18.708Z,19.59
2017-01-21T17:11:05.704Z,19.58
2017-01-21T17:11:30.750Z,19.58
2017-01-21T17:12:00.761Z,19.56
2017-01-21T17:12:31.767Z,19.56
2017-01-21T17:13:04.605Z,19.55
2017-01-21T17:13:30.861Z,19.55
2017-01-21T17:14:05.511Z,19.55
2017-01-21T17:14:31.267Z,19.55
2017-01-21T17:15:00.959Z,19.54
2017-01-21T17:15:33.178Z,19.52
2017-01-21T17:16:01.059Z,19.51
2017-01-21T17:16:31.247Z,19.5
2017-01-21T17:17:01.381Z,19.49
2017-01-21T17:17:31.162Z,19.48
2017-01-21T17:18:01.392Z,19.47
2017-01-21T17:18:31.251Z,19.47
2017-01-21T17:19:01.340Z,19.45
2017-01-21T17:19:31.385Z,19.43
2017-01-21T17:20:01.989Z,19.43
2017-01-21T17:20:33.440Z,19.4
2017-01-21T17:21:01.282Z,19.39
2017-01-21T17:21:31.522Z,19.38
2017-01-21T17:22:01.361Z,19.37
2017-01-21T17:23:02.784Z,19.37
2017-01-21T17:23:31.666Z,19.37
2017-01-21T17:24:03.378Z,19.35
2017-01-21T17:24:32.761Z,19.33
2017-01-21T17:25:02.185Z,19.32
2017-01-21T17:25:31.811Z,19.31
2017-01-21T17:26:01.645Z,19.3
2017-01-21T17:26:31.684Z,19.27
2017-01-21T17:27:01.724Z,19.26
2017-01-21T17:27:31.756Z,19.25
2017-01-21T17:28:31.828Z,19.23
2017-01-21T17:29:01.865Z,19.22
2017-01-21T17:29:31.921Z,19.21
2017-01-21T17:29:47.017Z,19.2
2017-01-21T17:30:17.048Z,19.19
2017-01-21T17:30:47.087Z,19.18
2017-01-21T17:31:17.147Z,19.17
2017-01-21T17:31:47.156Z,19.15
2017-01-21T17:32:17.193Z,19.14
2017-01-21T17:32:49.227Z,19.13
2017-01-21T17:33:17.268Z,19.11
2017-01-21T17:33:47.308Z,19.1
2017-01-21T17:34:44.225Z,19.06
2017-01-21T17:40:52.281Z,19.68
2017-01-21T17:41:22.085Z,19.74
2017-01-21T17:48:36.646Z,19.96
2017-01-21T17:49:06.680Z,19.98
2017-01-21T17:49:36.716Z,19.92
2017-01-21T17:50:06.749Z,19.75
2017-01-21T17:50:36.789Z,19.59
2017-01-21T17:51:06.822Z,19.47
2017-01-21T17:51:36.860Z,19.38
2017-01-21T17:52:06.895Z,19.3
2017-01-21T17:52:36.978Z,19.23
2017-01-21T17:53:07.171Z,19.15
2017-01-21T17:53:37.003Z,19.09
2017-01-21T17:54:07.039Z,19.04
2017-01-21T17:54:37.076Z,18.98
2017-01-21T17:55:07.112Z,18.95
2017-01-21T17:55:37.150Z,18.94
2017-01-21T17:56:07.187Z,18.92
2017-01-21T17:56:37.223Z,18.91
2017-01-21T17:57:07.256Z,18.88
2017-01-21T17:57:37.291Z,18.88
2017-01-21T17:58:07.330Z,18.91
2017-01-21T17:58:37.367Z,18.91
2017-01-21T17:59:07.402Z,18.9
2017-01-21T17:59:37.443Z,18.92
2017-01-21T18:00:07.476Z,18.93
2017-01-21T18:00:37.509Z,18.93
2017-01-21T18:01:07.548Z,18.95
2017-01-21T18:01:37.584Z,18.97
2017-01-21T18:02:07.620Z,18.98
2017-01-21T18:02:37.656Z,19
2017-01-21T18:03:07.695Z,19
2017-01-21T18:03:37.729Z,19.02
2017-01-21T18:04:07.765Z,19.04
2017-01-21T18:04:37.801Z,19.06
2017-01-21T18:05:07.837Z,19.09
2017-01-21T18:05:37.877Z,19.11
2017-01-21T18:06:07.931Z,19.13
2017-01-21T18:06:37.947Z,19.15
2017-01-21T18:07:07.983Z,19.17
2017-01-21T18:07:38.019Z,19.17
2017-01-21T18:08:08.056Z,19.19
2017-01-21T18:08:38.098Z,19.22
2017-01-21T18:09:08.132Z,19.24
2017-01-21T18:09:38.164Z,19.26
2017-01-21T18:10:08.234Z,19.29
2017-01-21T18:10:38.406Z,19.29
2017-01-21T18:11:08.272Z,19.3
2017-01-21T18:11:38.311Z,19.33
2017-01-21T18:12:08.370Z,19.37
2017-01-21T18:12:38.384Z,19.37
2017-01-21T18:13:08.615Z,19.4
2017-01-21T18:13:38.454Z,19.42
2017-01-21T18:14:08.507Z,19.43
2017-01-21T18:14:38.534Z,19.47
2017-01-21T18:15:08.564Z,19.44
2017-01-21T18:15:38.620Z,19.47
2017-01-21T18:16:08.634Z,19.49
2017-01-21T18:16:39.900Z,19.49
2017-01-21T18:17:08.715Z,19.5
2017-01-21T18:17:38.818Z,19.51
2017-01-21T18:18:08.781Z,19.5
2017-01-21T18:18:38.818Z,19.53
2017-01-21T18:19:08.856Z,19.51
2017-01-21T18:19:38.895Z,19.53
2017-01-21T18:20:08.930Z,19.55
2017-01-21T18:20:38.964Z,19.55
2017-01-21T18:21:09.004Z,19.57
2017-01-21T18:21:39.041Z,19.58
2017-01-21T18:22:09.079Z,19.58
2017-01-21T18:22:39.111Z,19.59
2017-01-21T18:23:09.152Z,19.59
2017-01-21T18:23:39.186Z,19.61
2017-01-21T18:24:09.219Z,19.61
2017-01-21T18:24:39.259Z,19.63
2017-01-21T18:25:09.296Z,19.65
2017-01-21T18:25:39.335Z,19.64
2017-01-21T18:26:09.643Z,19.66
2017-01-21T18:26:39.443Z,19.64
2017-01-21T18:27:09.442Z,19.64
2017-01-21T18:27:39.479Z,19.65
2017-01-21T18:28:09.514Z,19.66
2017-01-21T18:28:39.601Z,19.67
2017-01-21T18:29:10.752Z,19.68
2017-01-21T18:29:39.623Z,19.67
2017-01-21T18:30:09.660Z,19.67
2017-01-21T18:30:39.697Z,19.68
2017-01-21T18:31:09.735Z,19.69
2017-01-21T18:31:39.768Z,19.69
2017-01-21T18:32:09.803Z,19.69
2017-01-21T18:32:39.845Z,19.69
2017-01-21T18:33:09.882Z,19.68
2017-01-21T18:33:39.916Z,19.67
2017-01-21T18:34:09.954Z,19.68
2017-01-21T18:34:39.987Z,19.69
2017-01-21T18:35:10.026Z,19.69
2017-01-21T18:35:40.065Z,19.7
2017-01-21T18:36:10.099Z,19.7
2017-01-21T18:36:40.144Z,19.69
2017-01-21T18:37:10.175Z,19.7
2017-01-21T18:37:40.210Z,19.71
2017-01-21T18:38:10.246Z,19.7
2017-01-21T18:38:40.282Z,19.71
2017-01-21T18:39:10.332Z,19.72
2017-01-21T18:39:40.353Z,19.71
2017-01-21T18:40:10.451Z,19.72
2017-01-21T18:40:40.540Z,19.72
2017-01-21T18:41:10.462Z,19.71
2017-01-21T18:41:40.504Z,19.71
2017-01-21T18:42:14.903Z,19.71
2017-01-21T18:42:40.576Z,19.72
2017-01-21T18:43:10.608Z,19.72
2017-01-21T18:43:40.650Z,19.72
2017-01-21T18:44:10.683Z,19.72
2017-01-21T18:44:40.724Z,19.72
2017-01-21T18:45:10.754Z,19.71
2017-01-21T18:45:40.796Z,19.71
2017-01-21T18:46:10.830Z,19.71
2017-01-21T18:46:40.868Z,19.71
2017-01-21T18:47:10.903Z,19.71
2017-01-21T18:47:40.940Z,19.72
2017-01-21T18:48:10.982Z,19.72